Time,TemperatureF,DewpointF,PressureIn,WindDirection,WindDirectionDegrees,WindSpeedMPH,WindSpeedGustMPH,Humidity,HourlyPrecipIn,Conditions,Clouds,dailyrainin,SoftwareType,DateUTC
2013-11-09 00:01:00,34.9,32.0,30.34,NW,309,0.0,0.0,90,0.00,,,0.00,weatherlink.com 1.10,2013-11-09 05:01:00,
2013-11-09 00:16:00,34.7,32.0,30.35,NW,309,0.0,0.0,90,0.00,,,0.00,weatherlink.com 1.10,2013-11-09 05:16:00,
2013-11-09 00:31:00,34.6,32.0,30.34,NW,309,0.0,0.0,90,0.00,,,0.00,weatherlink.com 1.10,2013-11-09 05:31:00,
2013-11-09 00:46:00,34.4,32.0,30.34,NW,307,0.0,1.0,90,0.00,,,0.00,weatherlink.com 1.10,2013-11-09 05:46:00,
2013-11-09 01:01:00,34.3,32.0,30.35,NW,309,0.0,1.0,90,0.00,,,0.00,weatherlink.com 1.10,2013-11-09 06:01:00,
2013-11-09 01:16:00,34.0,31.0,30.34,NW,309,0.0,0.0,90,0.00,,,0.00,weatherlink.com 1.10,2013-11-09 06:16:00,
2013-11-09 01:31:00,34.0,31.0,30.35,NW,307,0.0,0.0,90,0.00,,,0.00,weatherlink.com 1.10,2013-11-09 06:31:00,
2013-11-09 01:46:00,33.7,31.0,30.35,NW,307,0.0,0.0,90,0.00,,,0.00,weatherlink.com 1.10,2013-11-09 06:46:00,
2013-11-09 02:01:00,33.7,31.0,30.34,WNW,302,0.0,1.0,90,0.00,,,0.00,weatherlink.com 1.10,2013-11-09 07:01:00,
2013-11-09 02:16:00,33.7,31.0,30.34,WNW,302,0.0,1.0,91,0.00,,,0.00,weatherlink.com 1.10,2013-11-09 07:16:00,
2013-11-09 02:31:00,33.6,31.0,30.35,WSW,240,0.0,0.0,91,0.00,,,0.00,weatherlink.com 1.10,2013-11-09 07:31:00,
2013-11-09 02:47:00,33.6,31.0,30.35,WSW,243,0.0,0.0,90,0.00,,,0.00,weatherlink.com 1.10,2013-11-09 07:47:00,
2013-11-09 03:02:00,33.4,31.0,30.35,WSW,243,0.0,0.0,90,0.00,,,0.00,weatherlink.com 1.10,2013-11-09 08:02:00,
2013-11-09 03:17:00,33.2,31.0,30.35,WSW,243,0.0,0.0,90,0.00,,,0.00,weatherlink.com 1.10,2013-11-09 08:17:00,
2013-11-09 03:32:00,32.8,30.0,30.35,WSW,243,0.0,0.0,90,0.00,,,0.00,weatherlink.com 1.10,2013-11-09 08:32:00,
2013-11-09 03:47:00,32.4,30.0,30.34,WSW,243,0.0,0.0,90,0.00,,,0.00,weatherlink.com 1.10,2013-11-09 08:47:00,
2013-11-09 04:02:00,32.3,30.0,30.34,WSW,243,0.0,0.0,91,0.00,,,0.00,weatherlink.com 1.10,2013-11-09 09:02:00,
2013-11-09 04:17:00,32.0,30.0,30.34,WSW,243,0.0,0.0,91,0.00,,,0.00,weatherlink.com 1.10,2013-11-09 09:17:00,
2013-11-09 04:32:00,32.0,30.0,30.34,WSW,243,0.0,0.0,91,0.00,,,0.00,weatherlink.com 1.10,2013-11-09 09:32:00,
2013-11-09 04:47:00,31.7,29.0,30.34,WSW,243,0.0,0.0,91,0.00,,,0.00,weatherlink.com 1.10,2013-11-09 09:47:00,
2013-11-09 05:02:00,31.8,30.0,30.35,WSW,245,0.0,0.0,92,0.00,,,0.00,weatherlink.com 1.10,2013-11-09 10:02:00,
2013-11-09 05:17:00,31.6,30.0,30.35,WSW,245,0.0,0.0,92,0.00,,,0.00,weatherlink.com 1.10,2013-11-09 10:17:00,
2013-11-09 05:32:00,31.6,30.0,30.35,WSW,245,0.0,0.0,92,0.00,,,0.00,weatherlink.com 1.10,2013-11-09 10:32:00,
2013-11-09 05:47:00,31.6,30.0,30.36,WSW,245,0.0,0.0,92,0.00,,,0.00,weatherlink.com 1.10,2013-11-09 10:47:00,
2013-11-09 06:02:00,31.3,29.0,30.36,WSW,245,0.0,0.0,92,0.00,,,0.00,weatherlink.com 1.10,2013-11-09 11:02:00,
2013-11-09 06:17:00,31.2,29.0,30.37,WSW,243,0.0,0.0,92,0.00,,,0.00,weatherlink.com 1.10,2013-11-09 11:17:00,
2013-11-09 06:32:00,31.3,29.0,30.37,WSW,250,0.0,0.0,92,0.00,,,0.00,weatherlink.com 1.10,2013-11-09 11:32:00,
2013-11-09 06:47:00,31.2,29.0,30.37,WSW,250,0.0,0.0,92,0.00,,,0.00,weatherlink.com 1.10,2013-11-09 11:47:00,
2013-11-09 07:02:00,31.2,29.0,30.38,WSW,250,0.0,0.0,92,0.00,,,0.00,weatherlink.com 1.10,2013-11-09 12:02:00,
2013-11-09 07:17:00,31.4,29.0,30.38,WSW,250,0.0,0.0,92,0.00,,,0.00,weatherlink.com 1.10,2013-11-09 12:17:00,
2013-11-09 07:32:00,32.1,30.0,30.39,WSW,250,0.0,0.0,92,0.00,,,0.00,weatherlink.com 1.10,2013-11-09 12:32:00,
2013-11-09 07:47:00,33.0,31.0,30.39,WSW,250,0.0,0.0,92,0.00,,,0.00,weatherlink.com 1.10,2013-11-09 12:47:00,
2013-11-09 08:02:00,34.5,33.0,30.39,WSW,250,0.0,0.0,92,0.00,,,0.00,weatherlink.com 1.10,2013-11-09 13:02:00,
2013-11-09 08:17:00,37.5,35.0,30.39,WSW,249,0.0,0.0,92,0.00,,,0.00,weatherlink.com 1.10,2013-11-09 13:17:00,
2013-11-09 08:32:00,42.3,37.0,30.39,ESE,121,1.0,5.0,81,0.00,,,0.00,weatherlink.com 1.10,2013-11-09 13:32:00,
2013-11-09 08:47:00,45.3,36.0,30.39,NNE,22,1.0,3.0,71,0.00,,,0.00,weatherlink.com 1.10,2013-11-09 13:47:00,
2013-11-09 09:02:00,47.1,37.0,30.39,NE,51,2.0,5.0,67,0.00,,,0.00,weatherlink.com 1.10,2013-11-09 14:02:00,
2013-11-09 09:17:00,48.8,37.0,30.39,SE,143,0.0,5.0,65,0.00,,,0.00,weatherlink.com 1.10,2013-11-09 14:17:00,
2013-11-09 09:32:00,50.0,38.0,30.39,SSE,148,1.0,4.0,63,0.00,,,0.00,weatherlink.com 1.10,2013-11-09 14:32:00,
2013-11-09 09:47:00,50.6,37.0,30.38,South,176,4.0,5.0,59,0.00,,,0.00,weatherlink.com 1.10,2013-11-09 14:47:00,
2013-11-09 10:03:00,51.5,37.0,30.38,South,184,3.0,7.0,58,0.00,,,0.00,weatherlink.com 1.10,2013-11-09 15:03:00,
2013-11-09 10:18:00,52.9,36.0,30.38,NE,56,0.0,6.0,53,0.00,,,0.00,weatherlink.com 1.10,2013-11-09 15:18:00,
2013-11-09 10:33:00,53.8,34.0,30.38,SE,134,2.0,7.0,48,0.00,,,0.00,weatherlink.com 1.10,2013-11-09 15:33:00,
2013-11-09 10:48:00,54.7,35.0,30.37,SW,221,2.0,6.0,48,0.00,,,0.00,weatherlink.com 1.10,2013-11-09 15:48:00,
2013-11-09 11:03:00,55.0,35.0,30.36,SE,124,2.0,6.0,48,0.00,,,0.00,weatherlink.com 1.10,2013-11-09 16:03:00,
2013-11-09 11:18:00,56.1,34.0,30.36,SE,131,3.0,9.0,43,0.00,,,0.00,weatherlink.com 1.10,2013-11-09 16:18:00,
2013-11-09 11:33:00,56.7,33.0,30.34,ESE,116,2.0,5.0,41,0.00,,,0.00,weatherlink.com 1.10,2013-11-09 16:33:00,
2013-11-09 11:48:00,57.1,33.0,30.33,ESE,117,1.0,8.0,40,0.00,,,0.00,weatherlink.com 1.10,2013-11-09 16:48:00,
2013-11-09 12:03:00,57.9,34.0,30.32,SSE,159,1.0,8.0,40,0.00,,,0.00,weatherlink.com 1.10,2013-11-09 17:03:00,
2013-11-09 12:18:00,58.1,34.0,30.31,ESE,117,3.0,6.0,40,0.00,,,0.00,weatherlink.com 1.10,2013-11-09 17:18:00,
2013-11-09 12:33:00,59.0,33.0,30.31,NW,306,4.0,6.0,38,0.00,,,0.00,weatherlink.com 1.10,2013-11-09 17:33:00,
2013-11-09 12:48:00,58.8,33.0,30.30,East,96,2.0,8.0,38,0.00,,,0.00,weatherlink.com 1.10,2013-11-09 17:48:00,
2013-11-09 13:03:00,59.1,33.0,30.29,SW,218,2.0,8.0,37,0.00,,,0.00,weatherlink.com 1.10,2013-11-09 18:03:00,
2013-11-09 13:18:00,58.7,34.0,30.29,NW,325,2.0,9.0,39,0.00,,,0.00,weatherlink.com 1.10,2013-11-09 18:18:00,
2013-11-09 13:33:00,57.7,34.0,30.28,SSE,155,4.0,6.0,41,0.00,,,0.00,weatherlink.com 1.10,2013-11-09 18:33:00,
2013-11-09 13:48:00,57.8,33.0,30.28,South,188,1.0,5.0,39,0.00,,,0.00,weatherlink.com 1.10,2013-11-09 18:48:00,
2013-11-09 14:03:00,57.8,33.0,30.27,ENE,72,2.0,3.0,39,0.00,,,0.00,weatherlink.com 1.10,2013-11-09 19:03:00,
2013-11-09 14:18:00,57.7,33.0,30.27,SSE,158,1.0,3.0,39,0.00,,,0.00,weatherlink.com 1.10,2013-11-09 19:18:00,
2013-11-09 14:33:00,57.4,34.0,30.27,NW,304,1.0,6.0,42,0.00,,,0.00,weatherlink.com 1.10,2013-11-09 19:33:00,
2013-11-09 14:48:00,57.3,34.0,30.27,ENE,61,0.0,2.0,41,0.00,,,0.00,weatherlink.com 1.10,2013-11-09 19:48:00,
2013-11-09 15:03:00,57.0,34.0,30.27,ESE,120,6.0,6.0,42,0.00,,,0.00,weatherlink.com 1.10,2013-11-09 20:03:00,
2013-11-09 15:18:00,57.1,33.0,30.26,NE,50,1.0,1.0,40,0.00,,,0.00,weatherlink.com 1.10,2013-11-09 20:18:00,
2013-11-09 15:33:00,56.4,33.0,30.27,WNW,292,0.0,5.0,42,0.00,,,0.00,weatherlink.com 1.10,2013-11-09 20:33:00,
2013-11-09 15:48:00,56.1,34.0,30.26,NW,306,0.0,2.0,43,0.00,,,0.00,weatherlink.com 1.10,2013-11-09 20:48:00,
2013-11-09 16:03:00,55.7,34.0,30.26,ENE,77,0.0,1.0,45,0.00,,,0.00,weatherlink.com 1.10,2013-11-09 21:03:00,
2013-11-09 16:18:00,55.1,36.0,30.26,ENE,72,0.0,0.0,48,0.00,,,0.00,weatherlink.com 1.10,2013-11-09 21:18:00,
2013-11-09 16:33:00,54.3,37.0,30.26,ENE,72,0.0,0.0,53,0.00,,,0.00,weatherlink.com 1.10,2013-11-09 21:33:00,
2013-11-09 16:48:00,52.9,39.0,30.26,ENE,72,0.0,0.0,59,0.00,,,0.00,weatherlink.com 1.10,2013-11-09 21:48:00,
2013-11-09 17:03:00,51.9,39.0,30.26,ENE,72,0.0,0.0,62,0.00,,,0.00,weatherlink.com 1.10,2013-11-09 22:03:00,
2013-11-09 17:18:00,50.6,40.0,30.26,ENE,72,0.0,0.0,66,0.00,,,0.00,weatherlink.com 1.10,2013-11-09 22:18:00,
2013-11-09 17:33:00,49.6,39.0,30.27,ENE,72,0.0,0.0,68,0.00,,,0.00,weatherlink.com 1.10,2013-11-09 22:33:00,
2013-11-09 17:48:00,48.9,40.0,30.26,ENE,72,0.0,0.0,72,0.00,,,0.00,weatherlink.com 1.10,2013-11-09 22:48:00,
2013-11-09 18:03:00,48.5,40.0,30.26,ENE,72,0.0,0.0,72,0.00,,,0.00,weatherlink.com 1.10,2013-11-09 23:03:00,
2013-11-09 18:18:00,48.2,41.0,30.26,ENE,72,0.0,0.0,75,0.00,,,0.00,weatherlink.com 1.10,2013-11-09 23:18:00,
2013-11-09 18:33:00,48.0,40.0,30.27,ENE,72,0.0,0.0,73,0.00,,,0.00,weatherlink.com 1.10,2013-11-09 23:33:00,
2013-11-09 18:48:00,48.2,41.0,30.26,ENE,72,0.0,0.0,75,0.00,,,0.00,weatherlink.com 1.10,2013-11-09 23:48:00,
2013-11-09 19:03:00,48.1,41.0,30.26,ENE,72,0.0,0.0,75,0.00,,,0.00,weatherlink.com 1.10,2013-11-10 00:03:00,
2013-11-09 19:18:00,48.1,41.0,30.25,ENE,72,0.0,0.0,75,0.00,,,0.00,weatherlink.com 1.10,2013-11-10 00:18:00,
2013-11-09 19:33:00,48.0,42.0,30.24,ENE,72,0.0,0.0,79,0.00,,,0.00,weatherlink.com 1.10,2013-11-10 00:33:00,
2013-11-09 19:49:00,47.6,41.0,30.23,ENE,72,0.0,0.0,79,0.00,,,0.00,weatherlink.com 1.10,2013-11-10 00:49:00,
2013-11-09 20:04:00,46.8,41.0,30.23,ENE,72,0.0,0.0,79,0.00,,,0.00,weatherlink.com 1.10,2013-11-10 01:04:00,
2013-11-09 20:19:00,45.9,40.0,30.23,ENE,72,0.0,0.0,79,0.00,,,0.00,weatherlink.com 1.10,2013-11-10 01:19:00,
2013-11-09 20:34:00,45.3,40.0,30.22,ENE,72,0.0,0.0,80,0.00,,,0.00,weatherlink.com 1.10,2013-11-10 01:34:00,
2013-11-09 20:49:00,44.8,39.0,30.22,ENE,72,0.0,0.0,81,0.00,,,0.00,weatherlink.com 1.10,2013-11-10 01:49:00,
2013-11-09 21:04:00,44.6,38.0,30.21,ENE,72,0.0,0.0,79,0.00,,,0.00,weatherlink.com 1.10,2013-11-10 02:04:00,
2013-11-09 21:19:00,44.5,39.0,30.21,ENE,72,0.0,0.0,81,0.00,,,0.00,weatherlink.com 1.10,2013-11-10 02:19:00,
2013-11-09 21:34:00,43.9,38.0,30.21,ENE,72,0.0,0.0,81,0.00,,,0.00,weatherlink.com 1.10,2013-11-10 02:34:00,
2013-11-09 21:49:00,43.4,38.0,30.21,ENE,72,0.0,0.0,82,0.00,,,0.00,weatherlink.com 1.10,2013-11-10 02:49:00,
2013-11-09 22:04:00,42.9,38.0,30.22,ENE,72,0.0,0.0,83,0.00,,,0.00,weatherlink.com 1.10,2013-11-10 03:04:00,
2013-11-09 22:19:00,42.4,38.0,30.22,ENE,72,0.0,0.0,83,0.00,,,0.00,weatherlink.com 1.10,2013-11-10 03:19:00,
2013-11-09 22:34:00,42.6,38.0,30.21,ENE,69,0.0,0.0,83,0.00,,,0.00,weatherlink.com 1.10,2013-11-10 03:34:00,
2013-11-09 22:49:00,42.8,37.0,30.21,ENE,70,0.0,0.0,81,0.00,,,0.00,weatherlink.com 1.10,2013-11-10 03:49:00,
2013-11-09 23:04:00,43.4,37.0,30.21,ENE,68,0.0,0.0,79,0.00,,,0.00,weatherlink.com 1.10,2013-11-10 04:04:00,
2013-11-09 23:19:00,43.3,38.0,30.20,ENE,58,0.0,0.0,81,0.00,,,0.00,weatherlink.com 1.10,2013-11-10 04:19:00,
2013-11-09 23:34:00,42.7,38.0,30.20,ENE,58,0.0,0.0,82,0.00,,,0.00,weatherlink.com 1.10,2013-11-10 04:34:00,
2013-11-09 23:49:00,42.2,37.0,30.20,ENE,63,0.0,0.0,82,0.00,,,0.00,weatherlink.com 1.10,2013-11-10 04:49:00,